Terminal Aerodrome Forecast
Issued by NWS

Home | Current Version | Previous Version | Text Only | Print | Product List | Glossary On
Versions: 1 2 3 4 5 6 7 8 9 10 11 12 13 14 15 16 17 18 19 20 21 22 23 24 25
000
FTUS45 KPSR 270817 AAA
TAFPHX
TAF AMD
KPHX 270817Z 2708/2806 10007KT P6SM FEW110 SCT250
     FM271900 24010KT P6SM SCT110 SCT250
      TEMPO 2722/2802 24014G22KT
     FM280300 26012KT P6SM FEW110=

USA.gov is the U.S. government's official web portal to all federal, state and local government web resources and services.